Time;durP1;ratioP1;P1;durP2;ratioP2;P2;SDS_P1;SDS_P2;PMS_P1;PMS_P2;Temp;Humidity;BMP_temperature;BMP_pressure;BME280_temperature;BME280_humidity;BME280_pressure;Samples;Min_cycle;Max_cycle;Signal;HPM_P1;HPM_P2
2023/11/20 00:01:57;;;;;;;13.57;8.40;;;;;;;;;;5098450;28;20368;-56
2023/11/20 00:04:23;;;;;;;12.80;8.18;;;;;;;;;;5092871;28;20047;-48
2023/11/20 00:06:50;;;;;;;11.77;6.63;;;;;;;;;;5087892;28;20036;-53
2023/11/20 00:09:16;;;;;;;11.82;7.70;;;;;;;;;;5101222;28;20016;-52
2023/11/20 00:11:43;;;;;;;11.82;5.93;;;;;;;;;;5093034;28;20041;-50
2023/11/20 00:14:10;;;;;;;8.35;5.55;;;;;;;;;;5084131;28;20033;-48
2023/11/20 00:16:36;;;;;;;7.45;4.07;;;;;;;;;;5083613;28;20043;-49
2023/11/20 00:19:06;;;;;;;5.97;3.63;;;;;;;;;;5083033;28;20040;-53
2023/11/20 00:21:33;;;;;;;7.95;3.80;;;;;;;;;;5083974;28;20040;-50
2023/11/20 00:24:01;;;;;;;9.55;4.63;;;;;;;;;;5083753;28;20300;-46
2023/11/20 00:26:27;;;;;;;8.55;6.15;;;;;;;;;;5086969;28;20347;-49
2023/11/20 00:28:56;;;;;;;6.50;4.75;;;;;;;;;;5104049;28;20024;-45
2023/11/20 00:31:23;;;;;;;10.07;4.90;;;;;;;;;;5103521;28;20031;-48
2023/11/20 00:33:50;;;;;;;8.95;5.18;;;;;;;;;;5103555;28;20020;-47
2023/11/20 00:36:18;;;;;;;7.05;5.15;;;;;;;;;;5100169;28;20040;-46
2023/11/20 00:38:45;;;;;;;10.27;4.90;;;;;;;;;;5091067;28;20012;-53
2023/11/20 00:41:12;;;;;;;5.70;4.22;;;;;;;;;;5082087;28;20028;-52
2023/11/20 00:43:39;;;;;;;7.72;4.53;;;;;;;;;;5081681;28;20248;-47
2023/11/20 00:46:07;;;;;;;7.13;4.65;;;;;;;;;;5083252;28;20043;-47
2023/11/20 00:48:33;;;;;;;7.90;4.32;;;;;;;;;;5083216;28;20027;-45
2023/11/20 00:51:00;;;;;;;7.40;4.47;;;;;;;;;;5093543;28;20036;-48
2023/11/20 00:53:27;;;;;;;6.45;4.40;;;;;;;;;;5084762;28;20080;-46
2023/11/20 00:55:53;;;;;;;8.88;4.50;;;;;;;;;;5083858;28;20052;-48
2023/11/20 00:58:20;;;;;;;9.60;4.90;;;;;;;;;;5083606;28;20098;-47
2023/11/20 01:00:47;;;;;;;15.52;6.53;;;;;;;;;;5083873;28;20058;-47
2023/11/20 01:03:14;;;;;;;9.70;5.80;;;;;;;;;;5083341;28;20343;-46
2023/11/20 01:05:42;;;;;;;10.75;5.22;;;;;;;;;;5083952;28;20253;-49
2023/11/20 01:08:10;;;;;;;9.00;5.40;;;;;;;;;;5092085;28;20032;-54
2023/11/20 01:10:39;;;;;;;10.80;5.28;;;;;;;;;;5085584;28;20033;-46
2023/11/20 01:13:06;;;;;;;11.35;5.88;;;;;;;;;;5083489;28;20078;-48
2023/11/20 01:15:32;;;;;;;7.13;4.93;;;;;;;;;;5083730;28;20075;-48
2023/11/20 01:17:59;;;;;;;7.35;4.40;;;;;;;;;;5083025;28;20321;-51
2023/11/20 01:20:25;;;;;;;9.40;4.22;;;;;;;;;;5083292;28;20024;-45
2023/11/20 01:22:52;;;;;;;8.70;4.57;;;;;;;;;;5083215;28;20081;-45
2023/11/20 01:25:19;;;;;;;17.63;8.68;;;;;;;;;;5083558;28;20342;-48
2023/11/20 01:27:46;;;;;;;14.45;8.27;;;;;;;;;;5097229;28;20032;-47
2023/11/20 01:30:13;;;;;;;14.63;8.10;;;;;;;;;;5095141;28;20035;-47
2023/11/20 01:32:39;;;;;;;10.90;6.85;;;;;;;;;;5107156;28;20039;-45
2023/11/20 01:35:07;;;;;;;9.00;7.00;;;;;;;;;;5100366;28;20023;-46
2023/11/20 01:37:33;;;;;;;11.50;6.88;;;;;;;;;;5096980;28;20361;-50
2023/11/20 01:40:00;;;;;;;11.90;5.78;;;;;;;;;;5096980;28;20095;-52
2023/11/20 01:42:26;;;;;;;7.88;4.93;;;;;;;;;;5088088;28;20029;-49
2023/11/20 01:44:53;;;;;;;12.27;5.22;;;;;;;;;;5096820;28;20055;-53
2023/11/20 01:47:22;;;;;;;5.78;4.45;;;;;;;;;;5095076;28;20335;-49
2023/11/20 01:49:48;;;;;;;9.68;4.20;;;;;;;;;;5091503;28;20032;-48
2023/11/20 01:52:15;;;;;;;9.68;4.22;;;;;;;;;;5095422;28;20243;-51
2023/11/20 01:54:42;;;;;;;7.60;4.13;;;;;;;;;;5085735;28;20036;-49
2023/11/20 01:57:10;;;;;;;5.75;3.67;;;;;;;;;;5085964;28;20320;-56
2023/11/20 01:59:37;;;;;;;5.55;3.42;;;;;;;;;;5085981;28;20243;-54
2023/11/20 02:02:05;;;;;;;5.22;3.60;;;;;;;;;;5085824;28;20095;-52
2023/11/20 02:04:32;;;;;;;6.20;3.35;;;;;;;;;;5086288;28;20059;-52
2023/11/20 02:06:59;;;;;;;5.82;3.53;;;;;;;;;;5086075;28;20084;-50
2023/11/20 02:09:26;;;;;;;6.60;3.60;;;;;;;;;;5088375;28;20028;-50
2023/11/20 02:11:52;;;;;;;6.63;3.53;;;;;;;;;;5092760;28;20029;-56
2023/11/20 02:14:19;;;;;;;7.45;3.70;;;;;;;;;;5086219;28;20024;-52
2023/11/20 02:16:47;;;;;;;7.78;4.00;;;;;;;;;;5097521;28;20358;-51
2023/11/20 02:19:14;;;;;;;6.20;3.28;;;;;;;;;;5092047;28;20336;-48
2023/11/20 02:21:42;;;;;;;4.88;3.33;;;;;;;;;;5106222;28;20035;-51
2023/11/20 02:24:09;;;;;;;6.15;3.38;;;;;;;;;;5106275;28;20028;-54
2023/11/20 02:26:41;;;;;;;8.73;3.78;;;;;;;;;;5106070;28;20039;-52
2023/11/20 02:29:26;;;;;;;5.20;3.22;;;;;;;;;;5106124;28;20030;-54
2023/11/20 02:31:53;;;;;;;7.35;3.33;;;;;;;;;;5106083;28;20036;-55
2023/11/20 02:34:20;;;;;;;6.13;3.30;;;;;;;;;;5106087;28;20022;-52
2023/11/20 02:36:47;;;;;;;6.53;2.80;;;;;;;;;;5106106;28;20062;-52
2023/11/20 02:39:14;;;;;;;5.88;2.80;;;;;;;;;;5105875;28;20031;-52
2023/11/20 02:41:41;;;;;;;5.00;2.67;;;;;;;;;;5104709;28;20328;-54
2023/11/20 02:44:08;;;;;;;4.90;2.97;;;;;;;;;;5105719;28;20047;-47
2023/11/20 02:46:35;;;;;;;3.67;2.92;;;;;;;;;;5105679;28;20091;-51
2023/11/20 02:49:02;;;;;;;5.35;2.70;;;;;;;;;;5105893;28;20016;-48
2023/11/20 02:51:29;;;;;;;3.72;2.50;;;;;;;;;;5105764;28;20036;-50
2023/11/20 02:53:55;;;;;;;3.83;2.55;;;;;;;;;;5097788;28;20032;-53
2023/11/20 02:56:24;;;;;;;5.30;2.80;;;;;;;;;;5094155;28;20021;-53
2023/11/20 02:58:52;;;;;;;7.05;2.42;;;;;;;;;;5085205;28;20097;-55
2023/11/20 03:01:19;;;;;;;4.85;2.55;;;;;;;;;;5085246;28;20041;-52
2023/11/20 03:03:46;;;;;;;3.78;2.55;;;;;;;;;;5085001;28;20046;-52
2023/11/20 03:06:12;;;;;;;6.60;2.67;;;;;;;;;;5085046;28;20240;-49
2023/11/20 03:08:39;;;;;;;6.43;2.30;;;;;;;;;;5085133;28;20025;-50
2023/11/20 03:11:05;;;;;;;4.68;2.65;;;;;;;;;;5084910;28;20031;-51
2023/11/20 03:13:32;;;;;;;5.90;2.45;;;;;;;;;;5085411;28;20085;-53
2023/11/20 03:15:59;;;;;;;5.50;3.10;;;;;;;;;;5085048;28;20059;-53
2023/11/20 03:18:25;;;;;;;3.15;2.60;;;;;;;;;;5084992;28;20043;-52
2023/11/20 03:20:52;;;;;;;4.47;3.08;;;;;;;;;;5084775;28;20372;-51
2023/11/20 03:23:19;;;;;;;6.20;2.60;;;;;;;;;;5084892;28;20039;-50
2023/11/20 03:25:45;;;;;;;5.18;3.38;;;;;;;;;;5085384;28;20054;-49
2023/11/20 03:28:12;;;;;;;7.13;4.28;;;;;;;;;;5084581;28;20037;-52
2023/11/20 03:30:38;;;;;;;7.25;5.50;;;;;;;;;;5085073;28;20029;-51
2023/11/20 03:33:05;;;;;;;7.10;5.40;;;;;;;;;;5084639;28;20213;-48
2023/11/20 03:35:32;;;;;;;10.25;7.20;;;;;;;;;;5084780;28;20031;-50
2023/11/20 03:37:58;;;;;;;12.30;7.70;;;;;;;;;;5084946;28;20036;-50
2023/11/20 03:40:25;;;;;;;9.90;6.45;;;;;;;;;;5084886;28;20296;-56
2023/11/20 03:42:52;;;;;;;8.35;5.20;;;;;;;;;;5084462;28;20044;-54
2023/11/20 03:45:19;;;;;;;9.80;4.72;;;;;;;;;;5084544;28;20048;-50
2023/11/20 03:47:45;;;;;;;6.10;4.68;;;;;;;;;;5084623;28;20032;-50
2023/11/20 03:50:12;;;;;;;5.07;3.72;;;;;;;;;;5084101;28;20247;-47
2023/11/20 03:52:39;;;;;;;6.35;3.75;;;;;;;;;;5083824;28;20032;-53
2023/11/20 03:55:05;;;;;;;4.70;3.08;;;;;;;;;;5096013;28;20030;-52
2023/11/20 03:57:32;;;;;;;7.72;3.58;;;;;;;;;;5084124;28;20044;-48
2023/11/20 03:59:59;;;;;;;6.05;3.53;;;;;;;;;;5084483;28;20028;-51
2023/11/20 04:02:25;;;;;;;4.63;3.00;;;;;;;;;;5084195;28;20048;-48
2023/11/20 04:04:53;;;;;;;5.25;3.42;;;;;;;;;;5084340;28;20032;-48
2023/11/20 04:07:19;;;;;;;6.45;3.70;;;;;;;;;;5084102;28;20036;-51
2023/11/20 04:09:46;;;;;;;8.65;3.80;;;;;;;;;;5084376;28;20062;-53
2023/11/20 04:12:13;;;;;;;6.60;3.55;;;;;;;;;;5083978;28;20353;-52
2023/11/20 04:14:39;;;;;;;7.85;3.40;;;;;;;;;;5084368;28;20119;-52
2023/11/20 04:17:06;;;;;;;7.97;3.10;;;;;;;;;;5084060;28;20070;-52
2023/11/20 04:19:32;;;;;;;5.60;2.80;;;;;;;;;;5084069;28;20060;-52
2023/11/20 04:21:59;;;;;;;6.22;2.60;;;;;;;;;;5084068;28;20342;-52
2023/11/20 04:24:25;;;;;;;3.70;2.70;;;;;;;;;;5084033;28;20017;-46
2023/11/20 04:26:52;;;;;;;3.97;2.30;;;;;;;;;;5083849;28;20310;-50
2023/11/20 04:29:19;;;;;;;5.80;2.50;;;;;;;;;;5084094;28;20048;-52
2023/11/20 04:31:45;;;;;;;6.18;2.45;;;;;;;;;;5083920;28;20021;-50
2023/11/20 04:34:12;;;;;;;4.10;2.25;;;;;;;;;;5083802;28;20032;-50
2023/11/20 04:36:38;;;;;;;4.68;2.40;;;;;;;;;;5083700;28;20086;-52
2023/11/20 04:39:06;;;;;;;4.63;2.50;;;;;;;;;;5083935;28;20208;-52
2023/11/20 04:41:33;;;;;;;2.42;1.90;;;;;;;;;;5083735;28;20048;-50
2023/11/20 04:44:00;;;;;;;3.60;2.03;;;;;;;;;;5083478;28;20051;-51
2023/11/20 04:46:26;;;;;;;3.60;2.33;;;;;;;;;;5083574;28;20024;-50
2023/11/20 04:48:53;;;;;;;3.28;2.08;;;;;;;;;;5083636;28;20028;-55
2023/11/20 04:51:22;;;;;;;3.63;2.42;;;;;;;;;;5083511;28;20060;-51
2023/11/20 04:53:49;;;;;;;3.63;2.20;;;;;;;;;;5083648;28;20350;-52
2023/11/20 04:56:16;;;;;;;8.98;2.60;;;;;;;;;;5083878;28;20093;-53
2023/11/20 04:58:44;;;;;;;6.50;2.40;;;;;;;;;;5083375;28;20028;-50
2023/11/20 05:01:13;;;;;;;3.13;2.10;;;;;;;;;;5084987;28;20228;-48
2023/11/20 05:03:40;;;;;;;3.70;2.47;;;;;;;;;;5093508;28;20268;-51
2023/11/20 05:06:07;;;;;;;4.13;2.10;;;;;;;;;;5087616;28;20040;-45
2023/11/20 05:08:34;;;;;;;4.93;2.30;;;;;;;;;;5087571;28;20020;-47
2023/11/20 05:11:00;;;;;;;3.80;2.08;;;;;;;;;;5087352;28;20036;-52
2023/11/20 05:13:27;;;;;;;2.88;2.50;;;;;;;;;;5087385;28;20059;-47
2023/11/20 05:15:54;;;;;;;3.67;2.38;;;;;;;;;;5087374;28;20024;-49
2023/11/20 05:18:23;;;;;;;4.35;2.20;;;;;;;;;;5087243;28;20095;-50
2023/11/20 05:20:50;;;;;;;3.15;2.20;;;;;;;;;;5086952;28;20067;-48
2023/11/20 05:23:16;;;;;;;3.97;2.47;;;;;;;;;;5087198;28;20021;-49
2023/11/20 05:25:43;;;;;;;5.65;2.08;;;;;;;;;;5087591;28;20036;-46
2023/11/20 05:28:09;;;;;;;4.60;2.42;;;;;;;;;;5086794;28;20049;-51
2023/11/20 05:30:38;;;;;;;2.33;1.85;;;;;;;;;;5087414;28;20027;-51
2023/11/20 05:33:05;;;;;;;4.72;2.47;;;;;;;;;;5087297;28;20092;-51
2023/11/20 05:35:31;;;;;;;2.40;2.20;;;;;;;;;;5087206;28;20033;-50
2023/11/20 05:37:58;;;;;;;3.28;2.20;;;;;;;;;;5086848;28;20031;-46
2023/11/20 05:40:24;;;;;;;2.88;2.40;;;;;;;;;;5087276;28;20055;-47
2023/11/20 05:42:51;;;;;;;3.75;2.08;;;;;;;;;;5086623;28;20325;-47
2023/11/20 05:45:18;;;;;;;3.85;2.15;;;;;;;;;;5086881;28;20040;-47
2023/11/20 05:47:46;;;;;;;2.95;2.22;;;;;;;;;;5086702;28;20038;-49
2023/11/20 05:50:12;;;;;;;2.22;2.00;;;;;;;;;;5086850;28;20020;-51
2023/11/20 05:52:39;;;;;;;2.88;2.10;;;;;;;;;;5086590;28;20273;-49
2023/11/20 05:55:06;;;;;;;2.75;2.30;;;;;;;;;;5086891;28;20029;-50
2023/11/20 05:57:33;;;;;;;3.03;1.98;;;;;;;;;;5086397;28;20047;-51
2023/11/20 06:00:00;;;;;;;3.40;2.20;;;;;;;;;;5086752;28;20020;-51
2023/11/20 06:02:27;;;;;;;2.80;2.28;;;;;;;;;;5086459;28;20244;-52
2023/11/20 06:04:53;;;;;;;2.30;2.10;;;;;;;;;;5086559;28;20331;-55
2023/11/20 06:07:20;;;;;;;4.00;2.28;;;;;;;;;;5086422;28;20292;-55
2023/11/20 06:09:47;;;;;;;2.40;2.00;;;;;;;;;;5086483;28;20033;-53
2023/11/20 06:12:13;;;;;;;3.47;2.00;;;;;;;;;;5086397;28;20316;-44
2023/11/20 06:14:41;;;;;;;2.15;1.80;;;;;;;;;;5086476;28;20024;-48
2023/11/20 06:17:08;;;;;;;4.30;2.20;;;;;;;;;;5086076;28;20043;-49
2023/11/20 06:19:34;;;;;;;4.03;2.22;;;;;;;;;;5085890;28;20028;-52
2023/11/20 06:22:01;;;;;;;2.30;2.10;;;;;;;;;;5086183;28;20051;-47
2023/11/20 06:24:28;;;;;;;2.42;1.98;;;;;;;;;;5086222;28;20317;-45
2023/11/20 06:26:54;;;;;;;2.80;2.15;;;;;;;;;;5085814;28;20040;-50
2023/11/20 06:29:22;;;;;;;2.25;2.05;;;;;;;;;;5086007;28;20044;-46
2023/11/20 06:31:48;;;;;;;3.83;2.33;;;;;;;;;;5085866;28;20036;-50
2023/11/20 06:34:15;;;;;;;4.53;2.05;;;;;;;;;;5085863;28;20039;-50
2023/11/20 06:36:42;;;;;;;4.90;2.03;;;;;;;;;;5085870;28;20059;-48
2023/11/20 06:39:09;;;;;;;2.80;1.95;;;;;;;;;;5085802;28;20037;-51
2023/11/20 06:41:37;;;;;;;4.72;2.20;;;;;;;;;;5085575;28;20324;-50
2023/11/20 06:44:05;;;;;;;4.60;2.10;;;;;;;;;;5085421;28;20052;-53
2023/11/20 06:46:32;;;;;;;3.42;2.10;;;;;;;;;;5085483;28;20077;-53
2023/11/20 06:48:59;;;;;;;2.42;2.22;;;;;;;;;;5085406;28;20026;-52
2023/11/20 06:51:25;;;;;;;3.50;2.17;;;;;;;;;;5085597;28;20031;-48
2023/11/20 06:53:52;;;;;;;3.05;2.10;;;;;;;;;;5085588;28;20042;-52
2023/11/20 06:56:19;;;;;;;4.65;2.10;;;;;;;;;;5085346;28;20095;-49
2023/11/20 06:58:47;;;;;;;3.35;2.10;;;;;;;;;;5085205;28;20021;-52
2023/11/20 07:01:13;;;;;;;2.10;1.80;;;;;;;;;;5085347;28;20086;-50
2023/11/20 07:03:43;;;;;;;3.35;2.13;;;;;;;;;;5085114;28;20035;-51
2023/11/20 07:06:17;;;;;;;6.03;2.28;;;;;;;;;;5085039;28;20095;-52
2023/11/20 07:08:43;;;;;;;4.55;2.15;;;;;;;;;;5085087;28;20020;-52
2023/11/20 07:11:10;;;;;;;5.13;2.20;;;;;;;;;;5088390;28;20201;-53
2023/11/20 07:13:37;;;;;;;2.45;2.03;;;;;;;;;;5094889;28;20027;-51
2023/11/20 07:16:04;;;;;;;3.10;2.15;;;;;;;;;;5102954;28;20244;-46
2023/11/20 07:18:30;;;;;;;5.10;2.20;;;;;;;;;;5105003;28;20075;-47
2023/11/20 07:20:57;;;;;;;2.78;2.10;;;;;;;;;;5105455;28;20262;-50
2023/11/20 07:23:24;;;;;;;2.95;2.10;;;;;;;;;;5105318;28;20080;-50
2023/11/20 07:25:50;;;;;;;4.85;2.15;;;;;;;;;;5105433;28;20052;-48
2023/11/20 07:28:17;;;;;;;4.15;2.30;;;;;;;;;;5104463;28;20036;-52
2023/11/20 07:30:43;;;;;;;2.10;1.90;;;;;;;;;;5105501;28;20031;-52
2023/11/20 07:33:10;;;;;;;3.15;2.20;;;;;;;;;;5104874;28;20036;-47
2023/11/20 07:35:37;;;;;;;2.70;2.08;;;;;;;;;;5105376;28;20253;-49
2023/11/20 07:38:04;;;;;;;2.83;2.28;;;;;;;;;;5104948;28;20027;-48
2023/11/20 07:40:30;;;;;;;3.30;2.20;;;;;;;;;;5105240;28;20027;-51
2023/11/20 07:42:57;;;;;;;4.53;2.30;;;;;;;;;;5104769;28;20073;-50
2023/11/20 07:45:24;;;;;;;2.40;1.95;;;;;;;;;;5105113;28;20304;-53
2023/11/20 07:47:50;;;;;;;5.60;2.10;;;;;;;;;;5104614;28;20032;-47
2023/11/20 07:50:17;;;;;;;3.45;2.10;;;;;;;;;;5104919;28;20023;-46
2023/11/20 07:52:44;;;;;;;2.80;2.30;;;;;;;;;;5104761;28;20016;-47
2023/11/20 07:55:11;;;;;;;2.90;2.20;;;;;;;;;;5104946;28;20185;-51
2023/11/20 07:57:38;;;;;;;3.30;2.33;;;;;;;;;;5104405;28;20027;-51
2023/11/20 08:00:05;;;;;;;5.22;2.30;;;;;;;;;;5105189;28;20016;-51
2023/11/20 08:02:32;;;;;;;4.03;2.33;;;;;;;;;;5104467;28;20028;-47
2023/11/20 08:04:59;;;;;;;4.60;2.28;;;;;;;;;;5104966;28;20112;-54
2023/11/20 08:07:25;;;;;;;3.80;2.20;;;;;;;;;;5104445;28;20032;-55
2023/11/20 08:09:52;;;;;;;5.95;2.65;;;;;;;;;;5104691;28;20048;-53
2023/11/20 08:12:19;;;;;;;4.15;2.40;;;;;;;;;;5104199;28;20235;-46
2023/11/20 08:14:47;;;;;;;5.18;2.47;;;;;;;;;;5104645;28;20020;-46
2023/11/20 08:17:13;;;;;;;4.75;2.40;;;;;;;;;;5104243;28;20032;-47
2023/11/20 08:19:40;;;;;;;5.00;2.30;;;;;;;;;;5104596;28;20024;-51
2023/11/20 08:22:07;;;;;;;3.85;2.10;;;;;;;;;;5104277;28;20062;-46
2023/11/20 08:24:33;;;;;;;3.70;2.10;;;;;;;;;;5104568;28;20249;-49
2023/11/20 08:27:00;;;;;;;4.25;2.50;;;;;;;;;;5103970;28;20091;-46
2023/11/20 08:29:27;;;;;;;2.53;2.17;;;;;;;;;;5104399;28;20315;-53
2023/11/20 08:31:54;;;;;;;7.70;2.50;;;;;;;;;;5104064;28;20036;-48
2023/11/20 08:34:20;;;;;;;3.90;2.28;;;;;;;;;;5104090;28;20032;-49
2023/11/20 08:36:47;;;;;;;3.88;2.40;;;;;;;;;;5104145;28;20028;-50
2023/11/20 08:39:14;;;;;;;3.97;2.17;;;;;;;;;;5105623;28;20048;-54
2023/11/20 08:41:42;;;;;;;5.95;2.58;;;;;;;;;;5108118;28;20320;-54
2023/11/20 08:44:09;;;;;;;3.35;2.30;;;;;;;;;;5108117;28;20069;-53
2023/11/20 08:46:36;;;;;;;4.07;2.53;;;;;;;;;;5108024;28;20039;-50
2023/11/20 08:49:02;;;;;;;3.67;2.05;;;;;;;;;;5107908;28;20083;-52
2023/11/20 08:51:30;;;;;;;5.57;2.67;;;;;;;;;;5108112;28;20316;-49
2023/11/20 08:53:57;;;;;;;3.75;2.10;;;;;;;;;;5108043;28;20050;-52
2023/11/20 08:56:25;;;;;;;4.20;2.20;;;;;;;;;;5108226;28;20312;-52
2023/11/20 08:58:51;;;;;;;3.88;2.10;;;;;;;;;;5108298;28;20185;-53
2023/11/20 09:01:29;;;;;;;3.85;2.28;;;;;;;;;;5107896;28;20283;-56
2023/11/20 09:03:55;;;;;;;4.78;2.28;;;;;;;;;;5107785;28;20036;-53
2023/11/20 09:06:22;;;;;;;7.20;2.55;;;;;;;;;;5107680;28;20232;-49
2023/11/20 09:08:48;;;;;;;3.50;2.17;;;;;;;;;;5107747;28;20079;-57
2023/11/20 09:11:15;;;;;;;3.70;2.17;;;;;;;;;;5107617;28;20320;-54
2023/11/20 09:13:42;;;;;;;4.40;2.05;;;;;;;;;;5107740;28;20047;-52
2023/11/20 09:16:08;;;;;;;4.88;2.17;;;;;;;;;;5107631;28;20042;-50
2023/11/20 09:18:35;;;;;;;5.00;2.28;;;;;;;;;;5107420;28;20020;-46
2023/11/20 09:21:04;;;;;;;4.72;2.40;;;;;;;;;;5107626;28;20343;-48
2023/11/20 09:23:31;;;;;;;2.90;2.25;;;;;;;;;;5107378;28;20035;-51
2023/11/20 09:25:57;;;;;;;3.67;2.28;;;;;;;;;;5107212;28;20034;-50
2023/11/20 09:28:24;;;;;;;4.53;2.33;;;;;;;;;;5107419;28;20031;-51
2023/11/20 09:30:51;;;;;;;4.18;2.28;;;;;;;;;;5107869;28;20232;-51
2023/11/20 09:33:17;;;;;;;5.00;2.78;;;;;;;;;;5107204;28;20020;-51
2023/11/20 09:35:44;;;;;;;4.32;2.30;;;;;;;;;;5107207;28;20032;-48
2023/11/20 09:38:10;;;;;;;5.13;2.33;;;;;;;;;;5107312;28;20031;-49
2023/11/20 09:40:37;;;;;;;3.78;2.13;;;;;;;;;;5107429;28;20027;-48
2023/11/20 09:43:05;;;;;;;5.70;2.08;;;;;;;;;;5096639;28;20232;-50
2023/11/20 09:45:33;;;;;;;4.88;2.10;;;;;;;;;;5104889;28;20031;-52
2023/11/20 09:48:00;;;;;;;9.35;2.22;;;;;;;;;;5106779;28;20049;-50
2023/11/20 09:50:30;;;;;;;3.95;2.38;;;;;;;;;;5106964;28;20311;-46
2023/11/20 09:52:57;;;;;;;3.95;2.20;;;;;;;;;;5107222;28;20216;-46
2023/11/20 09:55:23;;;;;;;4.35;2.22;;;;;;;;;;5107201;28;20012;-51
2023/11/20 09:57:51;;;;;;;4.53;2.03;;;;;;;;;;5106932;28;20034;-51
2023/11/20 10:00:17;;;;;;;4.20;1.67;;;;;;;;;;5107096;28;20055;-54
2023/11/20 10:02:49;;;;;;;3.92;2.47;;;;;;;;;;5106581;28;20355;-52
2023/11/20 10:05:17;;;;;;;5.80;2.50;;;;;;;;;;5107003;28;20031;-50
2023/11/20 10:07:45;;;;;;;4.97;2.55;;;;;;;;;;5106658;28;20331;-48
2023/11/20 10:10:12;;;;;;;5.47;2.95;;;;;;;;;;5106798;28;20020;-50
2023/11/20 10:12:40;;;;;;;5.15;2.90;;;;;;;;;;5106566;28;20036;-54
2023/11/20 10:15:07;;;;;;;4.90;2.45;;;;;;;;;;5106818;28;20288;-50
2023/11/20 10:17:39;;;;;;;4.38;2.35;;;;;;;;;;5106281;28;20024;-51
2023/11/20 10:20:09;;;;;;;3.88;2.80;;;;;;;;;;5106626;28;20095;-46
2023/11/20 10:22:37;;;;;;;4.82;2.60;;;;;;;;;;5106211;28;20091;-47
2023/11/20 10:25:08;;;;;;;4.78;2.65;;;;;;;;;;5106601;28;20035;-48
2023/11/20 10:27:35;;;;;;;5.70;2.70;;;;;;;;;;5106197;28;20040;-49
2023/11/20 10:30:03;;;;;;;3.67;2.63;;;;;;;;;;5106417;28;20024;-49
2023/11/20 10:32:30;;;;;;;4.95;2.60;;;;;;;;;;5106358;28;20094;-48
2023/11/20 10:35:17;;;;;;;4.57;2.70;;;;;;;;;;5106338;28;20048;-53
2023/11/20 10:37:53;;;;;;;6.45;2.70;;;;;;;;;;5106015;28;20351;-50
2023/11/20 10:40:19;;;;;;;6.50;2.50;;;;;;;;;;5106438;28;20027;-52
2023/11/20 10:42:46;;;;;;;5.82;2.40;;;;;;;;;;5105760;28;20339;-52
2023/11/20 10:45:13;;;;;;;4.68;2.50;;;;;;;;;;5106181;28;20048;-48
2023/11/20 10:47:39;;;;;;;5.70;2.60;;;;;;;;;;5092539;28;20052;-52
2023/11/20 10:50:06;;;;;;;5.95;2.90;;;;;;;;;;5105883;28;20028;-48
2023/11/20 10:52:33;;;;;;;5.00;2.60;;;;;;;;;;5105664;28;20020;-48
2023/11/20 10:55:05;;;;;;;12.27;3.20;;;;;;;;;;5106115;28;20065;-47
2023/11/20 10:57:32;;;;;;;7.25;4.07;;;;;;;;;;5105504;28;20056;-51
2023/11/20 11:00:07;;;;;;;12.07;4.28;;;;;;;;;;5106131;28;20032;-51
2023/11/20 11:02:36;;;;;;;6.20;4.22;;;;;;;;;;5090192;28;20027;-48
2023/11/20 11:05:12;;;;;;;6.57;4.00;;;;;;;;;;5085131;28;20040;-49
2023/11/20 11:07:42;;;;;;;7.97;3.75;;;;;;;;;;5104119;28;20283;-49
2023/11/20 11:10:14;;;;;;;6.22;3.40;;;;;;;;;;5104993;28;20304;-47
2023/11/20 11:12:42;;;;;;;8.20;3.17;;;;;;;;;;5096101;28;20020;-51
2023/11/20 11:15:15;;;;;;;6.63;3.20;;;;;;;;;;5085622;28;20320;-50
2023/11/20 11:17:49;;;;;;;9.88;5.30;;;;;;;;;;5094348;28;20041;-47
2023/11/20 11:20:18;;;;;;;25.20;11.48;;;;;;;;;;5090453;28;20062;-51
2023/11/20 11:22:59;;;;;;;19.88;6.38;;;;;;;;;;5089636;28;20039;-46
2023/11/20 11:25:29;;;;;;;15.95;8.57;;;;;;;;;;5095727;28;20055;-49
2023/11/20 11:27:58;;;;;;;16.08;9.75;;;;;;;;;;5093861;28;20040;-51
2023/11/20 11:30:34;;;;;;;17.70;10.45;;;;;;;;;;5088913;28;20059;-52
2023/11/20 11:33:00;;;;;;;16.52;9.35;;;;;;;;;;5083039;28;20036;-48
2023/11/20 11:35:45;;;;;;;10.80;7.20;;;;;;;;;;5083403;28;20098;-49
2023/11/20 11:38:31;;;;;;;11.52;6.80;;;;;;;;;;5082888;28;20040;-51
2023/11/20 11:41:12;;;;;;;11.00;5.95;;;;;;;;;;5082873;28;20032;-48
2023/11/20 11:43:45;;;;;;;9.87;5.03;;;;;;;;;;5082963;28;20056;-51
2023/11/20 11:46:12;;;;;;;6.82;4.03;;;;;;;;;;5083770;28;20278;-47
2023/11/20 11:48:39;;;;;;;6.85;3.72;;;;;;;;;;5085366;28;20036;-51
2023/11/20 11:51:06;;;;;;;9.60;4.07;;;;;;;;;;5082689;28;20114;-48
2023/11/20 11:53:36;;;;;;;5.57;3.30;;;;;;;;;;5082638;28;20044;-51
2023/11/20 11:56:10;;;;;;;6.10;3.30;;;;;;;;;;5082661;28;20024;-51
2023/11/20 11:58:38;;;;;;;6.18;3.30;;;;;;;;;;5082671;28;20016;-52
2023/11/20 12:01:17;;;;;;;5.10;2.85;;;;;;;;;;5083601;28;20028;-48
2023/11/20 12:03:47;;;;;;;3.83;2.65;;;;;;;;;;5083286;28;20074;-52
2023/11/20 12:06:18;;;;;;;28.52;5.82;;;;;;;;;;5084613;28;20032;-53
2023/11/20 12:08:48;;;;;;;21.52;4.93;;;;;;;;;;5084888;28;20261;-51
2023/11/20 12:11:34;;;;;;;13.77;3.78;;;;;;;;;;5084868;28;20036;-53
2023/11/20 12:14:07;;;;;;;8.32;3.28;;;;;;;;;;5084533;28;20020;-46
2023/11/20 12:16:38;;;;;;;6.88;3.30;;;;;;;;;;5084570;28;20337;-45
2023/11/20 12:19:04;;;;;;;9.07;3.30;;;;;;;;;;5084588;28;20012;-48
2023/11/20 12:21:31;;;;;;;5.65;3.00;;;;;;;;;;5084363;28;20037;-47
2023/11/20 12:23:58;;;;;;;7.20;2.55;;;;;;;;;;5084686;28;20028;-49
2023/11/20 12:26:25;;;;;;;6.68;2.67;;;;;;;;;;5084322;28;20021;-51
2023/11/20 12:28:52;;;;;;;5.47;2.78;;;;;;;;;;5084274;28;20033;-54
2023/11/20 12:31:19;;;;;;;3.65;2.55;;;;;;;;;;5084481;28;20108;-51
2023/11/20 12:33:47;;;;;;;4.00;2.53;;;;;;;;;;5084164;28;20062;-52
2023/11/20 12:36:14;;;;;;;6.10;2.58;;;;;;;;;;5083954;28;20126;-56
2023/11/20 12:38:46;;;;;;;4.25;2.45;;;;;;;;;;5088240;28;20024;-54
2023/11/20 12:41:12;;;;;;;6.97;2.27;;;;;;;;;;5083712;28;20020;-51
2023/11/20 12:43:39;;;;;;;99.07;13.68;;;;;;;;;;5093785;28;20286;-51
2023/11/20 12:46:06;;;;;;;50.58;7.82;;;;;;;;;;5093770;28;20223;-51
2023/11/20 12:48:35;;;;;;;30.05;5.15;;;;;;;;;;5090978;28;20087;-51
2023/11/20 12:51:05;;;;;;;25.20;5.13;;;;;;;;;;5090145;28;20093;-58
2023/11/20 12:53:33;;;;;;;19.08;3.38;;;;;;;;;;5085027;28;20060;-52
2023/11/20 12:56:04;;;;;;;18.80;3.83;;;;;;;;;;5102797;28;20377;-56
2023/11/20 12:58:31;;;;;;;13.13;2.97;;;;;;;;;;5091969;28;20032;-52
2023/11/20 13:00:59;;;;;;;13.23;3.22;;;;;;;;;;5090936;28;20037;-52
2023/11/20 13:03:27;;;;;;;7.00;2.50;;;;;;;;;;5087858;28;20104;-51
2023/11/20 13:05:55;;;;;;;19.80;3.55;;;;;;;;;;5093649;28;20289;-55
2023/11/20 13:08:27;;;;;;;9.18;2.60;;;;;;;;;;5093087;28;20029;-51
2023/11/20 13:10:54;;;;;;;7.60;2.47;;;;;;;;;;5093039;28;20051;-53
2023/11/20 13:13:23;;;;;;;7.15;2.65;;;;;;;;;;5092045;28;20043;-50
2023/11/20 13:15:50;;;;;;;27.08;4.57;;;;;;;;;;5091144;28;20016;-53
2023/11/20 13:18:18;;;;;;;164.20;16.35;;;;;;;;;;5091831;28;20027;-53
2023/11/20 13:20:49;;;;;;;118.57;13.40;;;;;;;;;;5093768;28;20296;-55
2023/11/20 13:23:17;;;;;;;100.25;9.23;;;;;;;;;;5093436;28;20012;-53
2023/11/20 13:25:47;;;;;;;68.28;8.73;;;;;;;;;;5093245;28;20062;-50
2023/11/20 13:28:16;;;;;;;63.00;8.10;;;;;;;;;;5095076;28;20040;-54
2023/11/20 13:30:55;;;;;;;66.10;8.10;;;;;;;;;;5096239;28;20064;-51
2023/11/20 13:33:26;;;;;;;40.58;5.97;;;;;;;;;;5094478;28;20318;-53
2023/11/20 13:35:53;;;;;;;43.90;7.47;;;;;;;;;;5095005;28;20028;-56
2023/11/20 13:38:21;;;;;;;32.80;5.63;;;;;;;;;;5096410;28;20204;-49
2023/11/20 13:40:49;;;;;;;35.67;5.47;;;;;;;;;;5095932;28;20029;-49
2023/11/20 13:43:16;;;;;;;23.92;4.93;;;;;;;;;;5096581;28;20028;-53
2023/11/20 13:45:43;;;;;;;23.73;4.50;;;;;;;;;;5095645;28;20028;-53
2023/11/20 13:48:13;;;;;;;23.00;4.88;;;;;;;;;;5097020;28;20065;-48
2023/11/20 13:50:43;;;;;;;19.58;4.82;;;;;;;;;;5097166;28;20088;-45
2023/11/20 13:53:12;;;;;;;15.02;4.10;;;;;;;;;;5095608;28;20052;-51
2023/11/20 13:55:48;;;;;;;15.98;3.65;;;;;;;;;;5096358;28;20016;-47
2023/11/20 13:58:15;;;;;;;12.45;3.90;;;;;;;;;;5096187;28;20092;-50
2023/11/20 14:00:42;;;;;;;9.18;3.17;;;;;;;;;;5095333;28;20028;-53
2023/11/20 14:03:09;;;;;;;8.43;3.30;;;;;;;;;;5095212;28;20024;-52
2023/11/20 14:05:39;;;;;;;7.22;3.33;;;;;;;;;;5096459;28;20016;-51
2023/11/20 14:08:05;;;;;;;7.15;3.10;;;;;;;;;;5097099;28;20289;-51
2023/11/20 14:10:32;;;;;;;6.30;2.67;;;;;;;;;;5096151;28;20300;-52
2023/11/20 14:12:59;;;;;;;5.00;2.75;;;;;;;;;;5095574;28;20220;-51
2023/11/20 14:15:26;;;;;;;4.72;2.25;;;;;;;;;;5097111;28;20024;-49
2023/11/20 14:17:55;;;;;;;5.82;2.40;;;;;;;;;;5095508;28;20028;-51
2023/11/20 14:20:24;;;;;;;4.50;2.63;;;;;;;;;;5095393;28;20234;-46
2023/11/20 14:22:51;;;;;;;7.78;2.63;;;;;;;;;;5094924;28;20325;-49
2023/11/20 14:25:18;;;;;;;6.13;2.63;;;;;;;;;;5095775;28;20019;-52
2023/11/20 14:27:48;;;;;;;4.78;2.70;;;;;;;;;;5096638;28;20048;-50
2023/11/20 14:30:14;;;;;;;6.40;2.65;;;;;;;;;;5095526;28;20028;-47
2023/11/20 14:32:45;;;;;;;7.97;2.88;;;;;;;;;;5094905;28;20048;-50
2023/11/20 14:35:12;;;;;;;12.02;3.78;;;;;;;;;;5095263;28;20324;-49
2023/11/20 14:37:41;;;;;;;10.95;4.38;;;;;;;;;;5091772;28;20034;-50
2023/11/20 14:40:09;;;;;;;7.75;3.50;;;;;;;;;;5096743;28;20019;-49
2023/11/20 14:42:42;;;;;;;13.15;4.63;;;;;;;;;;5094158;28;20032;-53
2023/11/20 14:45:10;;;;;;;10.10;4.40;;;;;;;;;;5094423;28;20049;-54